< < Back
Terminal Aerodrome Forecast


Current Version              Previous Versions:   1  2  3  4  5  6  7  8  9  

Terminal Aerodrome Forecast

103
FTUS42 KCHS 221917 AAA
TAFCHS
TAF AMD
KCHS 221917Z 2219/2318 17009KT P6SM VCTS SCT040CB
      TEMPO 2219/2221 5SM -TSRA BKN040CB
     FM230200 20004KT P6SM SCT200
     FM231400 25007KT P6SM SCT040=



Latest METAR

899
SAUS80 KWBC 231100
MTRCHS
METAR KCHS 231056Z 00000KT 10SM FEW030 SCT250 25/23 A3001 RMK AO2 SLP162
TCU DSNT E-SE T02500233 $


USA.gov is the U.S. government's official web portal to all federal, state and local government web resources and services.